Time;durP1;ratioP1;P1;durP2;ratioP2;P2;SDS_P1;SDS_P2;PMS_P1;PMS_P2;Temp;Humidity;BMP_temperature;BMP_pressure;BME280_temperature;BME280_humidity;BME280_pressure;Samples;Min_cycle;Max_cycle;Signal;HPM_P1;HPM_P2
2022/11/05 00:11:11;;;;;;;7.05;1.20;;;4.10;99.90;;;;;;5026853;28;20485;-71
2022/11/05 00:19:05;;;;;;;7.85;1.08;;;4.30;99.90;;;;;;5046413;28;20151;-71
2022/11/05 00:27:04;;;;;;;7.68;1.15;;;4.20;99.90;;;;;;5046475;28;20500;-71
2022/11/05 00:29:30;;;;;;;2.58;1.10;;;4.20;99.90;;;;;;5024606;28;20059;-71
2022/11/05 00:31:56;;;;;;;8.17;1.10;;;4.10;99.90;;;;;;5010072;28;20076;-71
2022/11/05 00:34:21;;;;;;;8.37;1.17;;;4.10;99.90;;;;;;5037537;28;20047;-71
2022/11/05 00:36:47;;;;;;;5.13;0.90;;;4.10;99.90;;;;;;5045020;28;20048;-71
2022/11/05 00:39:13;;;;;;;5.93;1.30;;;4.10;99.90;;;;;;5044661;28;20044;-71
2022/11/05 00:41:39;;;;;;;5.77;0.90;;;4.10;99.90;;;;;;5007866;28;20044;-71
2022/11/05 00:46:48;;;;;;;7.63;0.85;;;4.10;99.90;;;;;;5044827;28;20044;-71
2022/11/05 00:49:29;;;;;;;6.57;1.33;;;4.00;99.90;;;;;;5025936;28;20040;-71
2022/11/05 00:54:39;;;;;;;6.25;1.40;;;4.00;99.90;;;;;;5042606;28;20053;-71
2022/11/05 00:57:05;;;;;;;7.50;1.00;;;4.00;99.90;;;;;;5023376;28;20048;-71
2022/11/05 00:59:31;;;;;;;8.47;1.30;;;3.90;99.90;;;;;;5009125;28;20052;-71
2022/11/05 01:01:57;;;;;;;7.00;1.00;;;3.90;99.90;;;;;;5023048;28;20037;-71
2022/11/05 01:04:22;;;;;;;7.73;1.20;;;3.90;99.90;;;;;;5047777;28;20320;-71
2022/11/05 01:06:48;;;;;;;7.27;1.20;;;3.90;99.90;;;;;;5018380;28;20075;-71
2022/11/05 01:09:14;;;;;;;3.83;0.70;;;3.80;99.90;;;;;;5010010;28;20480;-71
2022/11/05 01:11:40;;;;;;;8.10;0.97;;;3.80;99.90;;;;;;5003928;28;20047;-72
2022/11/05 01:14:12;;;;;;;5.50;0.82;;;3.80;99.90;;;;;;5044667;28;20056;-71
2022/11/05 01:16:39;;;;;;;4.10;0.75;;;3.70;99.90;;;;;;5039411;28;20114;-71
2022/11/05 01:19:07;;;;;;;7.63;1.20;;;3.80;99.90;;;;;;5048045;28;20055;-71
2022/11/05 01:21:33;;;;;;;5.85;1.02;;;3.80;99.90;;;;;;5034227;28;20523;-71
2022/11/05 01:24:02;;;;;;;6.35;1.30;;;3.90;99.90;;;;;;5036606;28;20511;-71
2022/11/05 01:26:28;;;;;;;5.38;1.52;;;4.00;99.90;;;;;;5026249;28;20036;-71
2022/11/05 01:28:56;;;;;;;1.92;0.98;;;4.00;99.90;;;;;;5027327;28;20469;-71
2022/11/05 01:31:23;;;;;;;8.15;0.98;;;4.00;99.90;;;;;;5023483;28;20044;-71
2022/11/05 01:33:49;;;;;;;7.43;1.00;;;4.10;99.90;;;;;;5032501;28;20123;-71
2022/11/05 01:36:15;;;;;;;5.55;1.08;;;4.10;99.90;;;;;;5022315;28;20155;-71
2022/11/05 01:38:40;;;;;;;6.23;1.00;;;4.10;99.90;;;;;;5050001;28;20066;-71
2022/11/05 01:41:06;;;;;;;5.17;0.90;;;4.10;99.90;;;;;;5005306;28;20394;-71
2022/11/05 01:43:58;;;;;;;5.38;0.80;;;4.20;99.90;;;;;;5014164;28;20404;-71
2022/11/05 01:46:39;;;;;;;4.45;1.08;;;4.30;99.90;;;;;;5027392;28;20125;-71
2022/11/05 01:49:20;;;;;;;6.20;1.10;;;4.40;99.90;;;;;;5049863;28;20076;-71
2022/11/05 01:51:47;;;;;;;6.50;1.00;;;4.50;99.90;;;;;;5054079;28;20107;-71
2022/11/05 01:54:17;;;;;;;4.18;1.00;;;4.60;99.90;;;;;;5032756;28;20178;-71
2022/11/05 01:56:51;;;;;;;4.47;0.90;;;4.70;99.90;;;;;;5033649;28;20082;-71
2022/11/05 01:59:26;;;;;;;4.25;0.70;;;4.70;99.90;;;;;;5020363;28;20041;-71
2022/11/05 02:01:53;;;;;;;4.68;0.80;;;4.80;99.90;;;;;;5035354;28;20888;-71
2022/11/05 02:04:48;;;;;;;9.35;1.00;;;4.80;99.90;;;;;;5048234;28;20048;-71
2022/11/05 02:07:16;;;;;;;7.47;2.78;;;4.90;99.90;;;;;;5041652;28;20432;-71
2022/11/05 02:09:45;;;;;;;6.43;0.70;;;5.00;99.90;;;;;;5032298;28;20040;-71
2022/11/05 02:12:12;;;;;;;3.97;0.80;;;5.10;99.90;;;;;;5032921;28;20044;-71
2022/11/05 02:14:38;;;;;;;12.07;1.25;;;5.20;99.90;;;;;;5032994;28;20475;-71
2022/11/05 02:17:41;;;;;;;7.33;1.13;;;5.40;99.90;;;;;;5016999;28;20044;-71
2022/11/05 02:20:14;;;;;;;6.38;1.45;;;5.70;99.90;;;;;;5049568;28;20052;-71
2022/11/05 02:23:06;;;;;;;13.20;2.00;;;5.80;99.90;;;;;;5053045;28;20044;-71
2022/11/05 02:26:00;;;;;;;6.32;0.90;;;5.80;99.90;;;;;;5032543;28;20738;-72
2022/11/05 02:28:53;;;;;;;2.88;0.80;;;5.90;99.90;;;;;;5047558;28;20052;-71
2022/11/05 02:31:52;;;;;;;5.03;0.68;;;6.00;99.90;;;;;;5022867;28;20040;-72
2022/11/05 02:34:44;;;;;;;3.75;0.93;;;6.10;99.90;;;;;;5049558;28;20040;-72
2022/11/05 02:37:29;;;;;;;5.80;0.98;;;6.10;99.90;;;;;;5029920;28;20041;-72
2022/11/05 02:39:58;;;;;;;3.75;0.60;;;6.30;99.90;;;;;;5044592;28;20089;-72
2022/11/05 02:42:48;;;;;;;4.43;0.80;;;6.30;99.90;;;;;;5048813;28;20337;-72
2022/11/05 02:45:31;;;;;;;5.35;0.80;;;6.40;99.90;;;;;;5048163;28;20287;-72
2022/11/05 02:48:16;;;;;;;3.88;0.85;;;6.40;99.90;;;;;;5031369;28;20109;-72
2022/11/05 02:51:03;;;;;;;5.43;0.90;;;6.40;99.90;;;;;;5040216;28;20127;-72
2022/11/05 02:53:41;;;;;;;3.70;0.80;;;6.40;99.90;;;;;;5040761;28;20075;-72
2022/11/05 02:56:20;;;;;;;2.67;0.70;;;6.30;99.90;;;;;;5018401;28;20059;-72
2022/11/05 02:58:46;;;;;;;5.45;0.68;;;6.30;99.90;;;;;;5039279;28;20124;-73
2022/11/05 03:01:12;;;;;;;3.40;0.90;;;6.20;99.90;;;;;;5016690;28;20124;-73
2022/11/05 03:03:45;;;;;;;5.17;1.03;;;6.20;99.90;;;;;;5033413;28;20040;-72
2022/11/05 03:06:19;;;;;;;4.60;0.50;;;6.10;99.90;;;;;;5027454;28;20044;-72
2022/11/05 03:08:54;;;;;;;9.50;1.40;;;6.10;99.90;;;;;;5030727;28;20479;-72
2022/11/05 03:11:21;;;;;;;;;;;6.00;99.90;;;;;;5042884;28;20049;-72
2022/11/05 03:14:01;;;;;;;5.55;0.70;;;6.00;99.90;;;;;;5028922;28;19920;-72
2022/11/05 03:16:30;;;;;;;2.50;0.75;;;5.90;99.90;;;;;;5038103;28;20466;-72
2022/11/05 03:19:03;;;;;;;2.38;0.80;;;6.00;99.90;;;;;;5031726;28;20783;-72
2022/11/05 03:21:45;;;;;;;3.97;1.13;;;6.00;99.90;;;;;;5032420;28;20040;-72
2022/11/05 03:24:17;;;;;;;6.03;1.27;;;6.10;99.90;;;;;;5048143;28;20501;-72
2022/11/05 03:26:55;;;;;;;2.63;0.85;;;6.10;99.90;;;;;;5031747;28;20360;-72
2022/11/05 03:29:30;;;;;;;5.38;0.98;;;6.20;99.90;;;;;;5037372;28;20032;-73
2022/11/05 03:31:58;;;;;;;7.45;1.10;;;6.20;99.90;;;;;;5061710;28;20423;-72
2022/11/05 03:34:35;;;;;;;8.15;2.15;;;6.20;99.90;;;;;;5026049;28;20042;-72
2022/11/05 03:37:03;;;;;;;4.95;1.35;;;6.10;99.90;;;;;;5046396;28;20097;-72
2022/11/05 03:39:36;;;;;;;4.53;0.95;;;6.10;99.90;;;;;;5031999;28;20515;-72
2022/11/05 03:42:06;;;;;;;6.45;1.25;;;6.10;99.90;;;;;;5048085;28;20127;-72
2022/11/05 03:44:37;;;;;;;5.35;1.10;;;6.10;99.90;;;;;;5047744;28;20178;-72
2022/11/05 03:47:10;;;;;;;4.65;0.70;;;6.00;99.90;;;;;;5021738;28;20055;-72
2022/11/05 03:49:49;;;;;;;5.68;1.05;;;6.00;99.90;;;;;;5026785;28;20127;-72
2022/11/05 03:52:23;;;;;;;6.32;1.17;;;6.00;99.90;;;;;;5023423;28;20076;-72
2022/11/05 03:54:49;;;;;;;4.55;1.02;;;5.90;99.90;;;;;;5030872;28;20508;-72
2022/11/05 03:57:25;;;;;;;5.07;1.00;;;6.00;99.90;;;;;;5031255;28;20048;-72
2022/11/05 03:59:51;;;;;;;9.10;1.20;;;6.00;99.90;;;;;;5047135;28;20040;-72
2022/11/05 04:02:21;;;;;;;7.27;1.20;;;6.10;99.90;;;;;;5052469;28;20092;-72
2022/11/05 04:04:47;;;;;;;9.00;1.20;;;6.20;99.90;;;;;;5013184;28;20053;-72
2022/11/05 04:15:28;;;;;;;3.50;0.90;;;6.40;99.90;;;;;;5041673;28;20040;-72
2022/11/05 04:17:57;;;;;;;2.90;0.70;;;6.50;99.90;;;;;;5034338;28;20047;-72
2022/11/05 04:25:53;;;;;;;10.38;1.17;;;6.90;99.90;;;;;;5046696;28;20246;-72
2022/11/05 04:28:19;;;;;;;5.23;0.90;;;7.00;99.90;;;;;;5029495;28;20066;-72
2022/11/05 04:30:44;;;;;;;8.33;1.33;;;7.10;99.90;;;;;;5012020;28;20044;-72
2022/11/05 04:33:15;;;;;;;3.47;0.60;;;7.10;99.90;;;;;;5013499;28;20392;-72
2022/11/05 04:35:46;;;;;;;4.90;0.93;;;7.10;99.90;;;;;;5029050;28;20044;-72
2022/11/05 04:38:17;;;;;;;3.72;0.70;;;7.10;99.90;;;;;;5046539;28;20124;-72
2022/11/05 04:40:44;;;;;;;7.05;1.08;;;7.10;99.90;;;;;;5046646;28;20040;-72
2022/11/05 04:43:13;;;;;;;6.05;0.75;;;7.10;99.90;;;;;;5013497;28;20044;-72
2022/11/05 04:45:39;;;;;;;4.35;0.65;;;7.20;99.90;;;;;;5029879;28;22023;-72
2022/11/05 04:48:05;;;;;;;4.47;0.90;;;7.20;99.90;;;;;;5026770;28;20460;-72
2022/11/05 04:50:31;;;;;;;2.60;0.60;;;7.20;99.90;;;;;;5013835;28;20148;-72
2022/11/05 04:52:57;;;;;;;3.95;0.75;;;7.20;99.90;;;;;;5029150;28;20051;-72
2022/11/05 04:55:23;;;;;;;6.33;0.80;;;7.20;99.90;;;;;;5030126;28;20040;-72
2022/11/05 04:57:50;;;;;;;3.10;0.70;;;7.20;99.90;;;;;;5018216;28;20349;-72
2022/11/05 05:00:18;;;;;;;4.00;0.60;;;7.20;99.90;;;;;;5022242;28;20067;-72
2022/11/05 05:02:44;;;;;;;2.85;0.60;;;7.20;99.90;;;;;;5048354;28;20036;-72
2022/11/05 05:05:10;;;;;;;6.25;0.65;;;7.20;99.90;;;;;;5046765;28;20045;-72
2022/11/05 05:07:36;;;;;;;3.07;0.50;;;7.20;99.90;;;;;;5029120;28;20573;-72
2022/11/05 05:10:04;;;;;;;5.57;0.60;;;7.20;99.90;;;;;;5047484;28;20547;-72
2022/11/05 05:12:32;;;;;;;2.50;0.52;;;7.10;99.90;;;;;;5023793;28;20044;-72
2022/11/05 05:14:57;;;;;;;2.53;0.50;;;7.00;99.90;;;;;;5029932;28;20036;-72
2022/11/05 05:17:24;;;;;;;6.43;0.67;;;6.90;99.90;;;;;;5013044;28;20109;-72
2022/11/05 05:22:33;;;;;;;7.40;0.50;;;6.80;99.90;;;;;;5031528;28;20048;-72
2022/11/05 05:24:59;;;;;;;2.37;0.50;;;6.70;99.90;;;;;;5046481;28;20110;-72
2022/11/05 05:27:29;;;;;;;7.40;0.90;;;6.60;99.90;;;;;;5046098;28;20096;-72
2022/11/05 05:29:57;;;;;;;2.63;0.70;;;6.50;99.90;;;;;;5033339;28;20033;-72
2022/11/05 05:32:23;;;;;;;4.65;0.80;;;6.40;99.90;;;;;;5029838;28;20563;-72
2022/11/05 05:34:49;;;;;;;5.85;0.90;;;6.30;99.90;;;;;;5045070;28;20086;-72
2022/11/05 05:37:15;;;;;;;3.78;1.02;;;6.30;99.90;;;;;;5017016;28;20047;-72
2022/11/05 05:39:41;;;;;;;5.00;0.80;;;6.20;99.90;;;;;;5029561;28;20040;-72
2022/11/05 05:42:06;;;;;;;5.67;1.53;;;6.10;99.90;;;;;;5026285;28;20302;-72
2022/11/05 05:44:32;;;;;;;7.27;1.30;;;6.10;99.90;;;;;;5025588;28;20581;-72
2022/11/05 05:46:58;;;;;;;3.17;0.97;;;6.00;99.90;;;;;;5028857;28;20083;-72
2022/11/05 05:49:23;;;;;;;6.13;1.37;;;6.00;99.90;;;;;;5017643;28;20041;-72
2022/11/05 05:51:49;;;;;;;3.77;1.20;;;5.90;99.90;;;;;;5010104;28;20043;-72
2022/11/05 05:54:15;;;;;;;5.20;1.27;;;5.90;99.90;;;;;;5044695;28;20101;-72
2022/11/05 05:56:44;;;;;;;3.88;1.60;;;5.90;99.90;;;;;;5029970;28;20547;-72
2022/11/05 05:59:11;;;;;;;6.03;1.52;;;5.90;99.90;;;;;;5029308;28;20037;-72
2022/11/05 06:01:37;;;;;;;5.93;1.80;;;5.90;99.90;;;;;;5033548;28;20044;-72
2022/11/05 06:04:02;;;;;;;3.70;1.73;;;5.90;99.90;;;;;;5054181;28;20444;-72
2022/11/05 06:06:28;;;;;;;3.83;1.73;;;5.90;99.90;;;;;;5033230;28;20041;-72
2022/11/05 06:08:55;;;;;;;3.70;1.77;;;5.90;99.90;;;;;;5033156;28;20051;-72
2022/11/05 06:11:22;;;;;;;7.13;1.92;;;5.90;99.90;;;;;;5050015;28;20051;-72
2022/11/05 06:13:48;;;;;;;4.38;1.85;;;5.90;99.90;;;;;;5048973;28;20559;-72
2022/11/05 06:16:14;;;;;;;4.87;2.20;;;5.90;99.90;;;;;;5026072;28;20136;-72
2022/11/05 06:18:40;;;;;;;5.45;2.65;;;6.00;99.90;;;;;;5043224;28;20044;-72
2022/11/05 06:21:11;;;;;;;6.40;2.37;;;6.10;99.90;;;;;;5049105;28;20195;-72
2022/11/05 06:23:39;;;;;;;5.72;2.60;;;6.20;99.90;;;;;;5049092;28;20119;-72
2022/11/05 06:26:16;;;;;;;5.15;2.28;;;6.30;99.90;;;;;;5032655;28;20652;-72
2022/11/05 06:28:42;;;;;;;6.43;2.60;;;6.30;99.90;;;;;;5032465;28;20069;-72
2022/11/05 06:31:09;;;;;;;5.00;2.55;;;6.30;99.90;;;;;;5022349;28;20045;-72
2022/11/05 06:33:35;;;;;;;6.63;2.58;;;6.30;99.90;;;;;;5026694;28;20107;-72
2022/11/05 06:36:01;;;;;;;5.77;1.90;;;6.30;99.90;;;;;;5016848;28;20119;-72
2022/11/05 06:38:30;;;;;;;7.63;2.20;;;6.30;99.90;;;;;;5047612;28;20039;-72
2022/11/05 06:40:59;;;;;;;5.60;2.20;;;6.20;99.90;;;;;;5048943;28;20055;-72
2022/11/05 06:43:26;;;;;;;2.90;1.75;;;6.20;99.90;;;;;;5044186;28;20489;-72
2022/11/05 06:45:51;;;;;;;3.80;1.60;;;6.20;99.90;;;;;;5038999;28;20045;-72
2022/11/05 06:48:17;;;;;;;4.60;2.03;;;6.20;99.90;;;;;;5032485;28;20198;-72
2022/11/05 06:50:44;;;;;;;6.67;1.90;;;6.30;99.90;;;;;;5026982;28;20039;-72
2022/11/05 06:53:11;;;;;;;4.50;1.80;;;6.30;99.90;;;;;;5048191;28;20044;-72
2022/11/05 06:55:36;;;;;;;4.57;1.80;;;6.40;99.90;;;;;;5012797;28;20531;-72
2022/11/05 06:58:03;;;;;;;4.20;1.70;;;6.40;99.90;;;;;;5031161;28;20036;-72
2022/11/05 07:00:29;;;;;;;4.22;1.63;;;6.50;99.90;;;;;;5022701;28;20556;-72
2022/11/05 07:02:55;;;;;;;4.07;1.50;;;6.50;99.90;;;;;;5022220;28;20044;-72
2022/11/05 07:05:22;;;;;;;4.07;1.63;;;6.60;99.90;;;;;;5032739;28;20844;-72
2022/11/05 07:07:47;;;;;;;3.83;1.52;;;6.60;99.90;;;;;;5005615;28;20436;-72
2022/11/05 07:10:16;;;;;;;6.50;1.50;;;6.70;99.90;;;;;;5025283;28;20043;-72
2022/11/05 07:12:42;;;;;;;5.20;1.88;;;6.80;99.90;;;;;;5014910;28;20106;-72
2022/11/05 07:15:09;;;;;;;4.25;1.60;;;6.80;99.90;;;;;;5031149;28;20055;-72
2022/11/05 07:17:35;;;;;;;4.68;2.13;;;6.90;99.90;;;;;;5031292;28;20210;-72
2022/11/05 07:20:02;;;;;;;4.30;1.93;;;7.00;99.90;;;;;;5021977;28;20127;-72
2022/11/05 07:22:28;;;;;;;6.78;2.17;;;7.10;99.90;;;;;;5028261;28;20056;-72
2022/11/05 07:24:54;;;;;;;6.80;2.00;;;7.20;99.90;;;;;;5042031;28;20057;-72
2022/11/05 07:27:19;;;;;;;4.97;1.70;;;7.20;99.90;;;;;;5031778;28;20055;-72
2022/11/05 07:29:45;;;;;;;5.07;1.63;;;7.30;99.90;;;;;;5032413;28;20048;-72
2022/11/05 07:32:11;;;;;;;9.73;2.30;;;7.40;99.90;;;;;;5032094;28;20488;-72
2022/11/05 07:34:36;;;;;;;4.97;1.70;;;7.40;99.90;;;;;;5015846;28;20123;-72
2022/11/05 07:37:02;;;;;;;8.00;1.70;;;7.50;99.90;;;;;;5031546;28;20694;-72
2022/11/05 07:39:28;;;;;;;5.33;1.57;;;7.50;99.90;;;;;;5032503;28;20052;-72
2022/11/05 07:41:54;;;;;;;5.67;1.67;;;7.50;99.90;;;;;;5012362;28;20049;-72
2022/11/05 07:44:20;;;;;;;3.67;1.47;;;7.60;99.90;;;;;;5040417;28;20036;-72
2022/11/05 07:46:46;;;;;;;5.80;1.75;;;7.70;99.90;;;;;;5046802;28;20668;-72
2022/11/05 07:49:12;;;;;;;8.37;3.10;;;7.80;99.90;;;;;;5048281;28;20097;-72
2022/11/05 07:51:38;;;;;;;6.30;1.60;;;8.00;99.90;;;;;;5048475;28;20044;-72
2022/11/05 07:54:03;;;;;;;6.80;2.23;;;8.10;99.90;;;;;;5031574;28;20040;-72
2022/11/05 07:56:29;;;;;;;6.90;1.80;;;8.30;99.90;;;;;;5043264;28;20044;-72
2022/11/05 07:58:55;;;;;;;4.37;1.70;;;8.50;99.90;;;;;;5022823;28;20045;-72
2022/11/05 08:01:20;;;;;;;3.70;1.67;;;8.70;99.90;;;;;;5031314;28;20407;-73
2022/11/05 08:03:46;;;;;;;7.47;1.80;;;8.80;99.90;;;;;;5021474;28;20056;-72
2022/11/05 08:06:12;;;;;;;4.83;2.23;;;8.90;99.90;;;;;;5014724;28;20041;-72
2022/11/05 08:08:37;;;;;;;2.80;1.40;;;9.00;99.90;;;;;;5031126;28;20520;-72
2022/11/05 08:11:09;;;;;;;3.17;1.27;;;9.10;99.90;;;;;;5047064;28;20037;-72
2022/11/05 08:13:35;;;;;;;6.60;1.45;;;9.10;99.90;;;;;;5029890;28;20086;-72
2022/11/05 08:16:01;;;;;;;6.15;2.00;;;9.20;99.90;;;;;;5030813;28;20057;-72
2022/11/05 08:18:30;;;;;;;6.88;1.58;;;9.20;99.90;;;;;;5047311;28;20144;-72
2022/11/05 08:20:58;;;;;;;7.35;1.60;;;9.30;99.90;;;;;;5030618;28;20055;-72
2022/11/05 08:23:28;;;;;;;5.60;1.70;;;9.30;99.90;;;;;;5030473;28;20659;-73
2022/11/05 08:25:55;;;;;;;4.50;1.50;;;9.30;99.90;;;;;;5014579;28;20072;-72
2022/11/05 08:28:22;;;;;;;7.03;2.22;;;9.30;99.90;;;;;;5039939;28;20052;-72
2022/11/05 08:30:53;;;;;;;6.30;2.43;;;9.40;99.90;;;;;;5019617;28;20064;-72
2022/11/05 08:33:19;;;;;;;5.68;1.98;;;9.50;99.90;;;;;;5046485;28;20780;-73
2022/11/05 08:35:46;;;;;;;8.02;2.40;;;9.60;99.90;;;;;;5014357;28;20047;-72
2022/11/05 08:38:14;;;;;;;8.15;2.00;;;9.70;99.90;;;;;;5046371;28;20044;-72
2022/11/05 08:40:41;;;;;;;4.47;1.47;;;9.70;99.90;;;;;;5031406;28;20085;-72
2022/11/05 08:43:09;;;;;;;5.90;1.60;;;9.80;99.90;;;;;;5038823;28;20290;-72
2022/11/05 08:45:36;;;;;;;5.55;1.42;;;9.80;99.90;;;;;;5046650;28;20728;-72
2022/11/05 08:48:07;;;;;;;11.30;1.73;;;9.80;99.90;;;;;;5041092;28;20056;-72
2022/11/05 08:50:34;;;;;;;8.37;1.70;;;9.80;99.90;;;;;;5028379;28;20275;-72
2022/11/05 08:53:00;;;;;;;5.60;1.77;;;9.80;99.90;;;;;;5047226;28;20604;-72
2022/11/05 08:55:26;;;;;;;5.87;1.40;;;9.80;99.90;;;;;;5038307;28;20340;-72
2022/11/05 08:58:03;;;;;;;5.70;1.40;;;9.80;99.90;;;;;;5033474;28;20032;-73
2022/11/05 09:00:31;;;;;;;4.83;1.30;;;9.90;99.90;;;;;;5004626;28;20306;-72
2022/11/05 09:02:59;;;;;;;4.97;1.40;;;9.90;99.90;;;;;;5045210;28;20309;-72
2022/11/05 09:05:25;;;;;;;4.63;1.23;;;10.00;99.90;;;;;;5054887;28;20557;-72
2022/11/05 09:07:51;;;;;;;8.07;1.50;;;10.10;99.90;;;;;;5035532;28;20328;-72
2022/11/05 09:10:17;;;;;;;6.07;1.30;;;10.10;99.90;;;;;;5030174;28;20278;-72
2022/11/05 09:12:43;;;;;;;3.57;1.00;;;10.20;99.90;;;;;;5029023;28;20036;-72
2022/11/05 09:15:10;;;;;;;5.17;1.10;;;10.20;99.90;;;;;;5026718;28;20043;-72
2022/11/05 09:17:36;;;;;;;7.77;1.57;;;10.30;99.90;;;;;;5028363;28;20044;-72
2022/11/05 09:20:03;;;;;;;4.77;1.70;;;10.30;99.90;;;;;;5025762;28;20294;-72
2022/11/05 09:22:29;;;;;;;5.77;1.20;;;10.40;99.90;;;;;;5011646;28;20066;-72
2022/11/05 09:24:55;;;;;;;4.63;1.30;;;10.40;99.90;;;;;;5030902;28;20302;-73
2022/11/05 09:27:20;;;;;;;7.43;1.70;;;10.40;99.90;;;;;;5027254;28;20295;-72
2022/11/05 09:29:46;;;;;;;6.33;1.37;;;10.40;99.90;;;;;;5029893;28;20048;-72
2022/11/05 09:32:14;;;;;;;2.77;1.30;;;10.50;99.90;;;;;;5012230;28;20040;-72
2022/11/05 09:34:43;;;;;;;5.07;1.10;;;10.50;99.90;;;;;;5018485;28;20040;-72
2022/11/05 09:37:08;;;;;;;7.90;1.40;;;10.60;99.90;;;;;;5013478;28;20299;-72
2022/11/05 09:39:34;;;;;;;4.70;1.30;;;10.60;99.90;;;;;;5016197;28;20290;-72
2022/11/05 09:42:06;;;;;;;5.10;1.30;;;10.70;99.90;;;;;;5032535;28;20063;-71
2022/11/05 09:44:57;;;;;;;4.63;1.50;;;10.80;99.90;;;;;;5039588;28;20036;-72
2022/11/05 09:47:50;;;;;;;3.77;1.07;;;10.80;99.90;;;;;;5048762;28;20303;-72
2022/11/05 09:50:29;;;;;;;4.23;1.00;;;10.90;99.90;;;;;;5049508;28;20286;-72
2022/11/05 09:52:55;;;;;;;5.83;1.10;;;10.90;99.90;;;;;;5031061;28;20286;-72
2022/11/05 09:55:29;;;;;;;5.00;1.23;;;11.00;99.90;;;;;;5022607;28;20349;-72
2022/11/05 09:58:00;;;;;;;5.70;1.40;;;11.00;99.90;;;;;;5031866;28;20060;-72
2022/11/05 10:00:28;;;;;;;5.23;1.20;;;11.10;99.90;;;;;;5049590;28;20788;-72
2022/11/05 10:03:04;;;;;;;4.77;1.40;;;11.20;99.90;;;;;;5048683;28;20329;-72
2022/11/05 10:05:31;;;;;;;5.27;1.70;;;11.40;99.90;;;;;;5031707;28;20271;-72
2022/11/05 10:08:15;;;;;;;3.73;1.27;;;11.50;99.90;;;;;;5045685;28;20294;-72
2022/11/05 10:10:54;;;;;;;7.33;1.87;;;11.50;99.90;;;;;;5034329;28;20306;-72
2022/11/05 10:13:38;;;;;;;6.40;1.40;;;11.60;99.90;;;;;;5027925;28;20286;-72
2022/11/05 10:16:19;;;;;;;6.20;2.43;;;11.60;99.90;;;;;;5043557;28;20830;-71
2022/11/05 10:18:51;;;;;;;4.00;1.00;;;11.60;99.90;;;;;;5033305;28;20286;-72
2022/11/05 10:21:19;;;;;;;3.53;1.10;;;11.60;99.90;;;;;;5042626;28;20349;-72
2022/11/05 10:23:45;;;;;;;2.17;1.07;;;11.60;99.90;;;;;;5043527;28;20286;-72
2022/11/05 10:26:16;;;;;;;2.57;1.20;;;11.60;99.90;;;;;;5042567;28;20352;-72
2022/11/05 10:28:42;;;;;;;5.13;1.10;;;11.70;99.90;;;;;;5043856;28;20839;-72
2022/11/05 10:31:12;;;;;;;4.43;1.20;;;11.70;99.90;;;;;;5015318;28;20309;-72
2022/11/05 10:33:58;;;;;;;5.40;1.50;;;11.70;99.90;;;;;;5037647;28;20042;-72
2022/11/05 10:36:30;;;;;;;6.97;1.00;;;11.70;99.90;;;;;;5039402;28;20290;-72
2022/11/05 10:39:13;;;;;;;3.73;1.30;;;11.70;99.90;;;;;;5012981;28;20695;-72
2022/11/05 10:42:01;;;;;;;4.33;1.03;;;11.70;99.90;;;;;;5045893;28;20311;-72
2022/11/05 10:45:00;;;;;;;7.00;1.10;;;11.80;99.90;;;;;;5028415;28;20311;-72
2022/11/05 10:48:00;;;;;;;5.33;1.40;;;11.90;99.90;;;;;;5046055;28;20903;-72
2022/11/05 10:50:28;;;;;;;5.30;0.90;;;11.90;99.90;;;;;;5068820;28;20805;-72
2022/11/05 10:52:58;;;;;;;5.93;0.83;;;11.90;99.90;;;;;;5032197;28;20646;-72
2022/11/05 10:55:26;;;;;;;2.73;1.00;;;11.90;99.90;;;;;;5027421;28;21074;-72
2022/11/05 10:57:52;;;;;;;5.43;0.90;;;12.00;99.90;;;;;;5063654;28;20279;-72
2022/11/05 11:00:24;;;;;;;3.50;0.70;;;12.00;99.90;;;;;;5040164;28;20282;-72
2022/11/05 11:02:56;;;;;;;4.37;1.03;;;12.10;99.90;;;;;;5011657;28;20041;-72
2022/11/05 11:05:22;;;;;;;4.87;0.90;;;12.20;99.90;;;;;;5040267;28;20282;-72
2022/11/05 11:08:11;;;;;;;2.63;1.13;;;12.20;99.90;;;;;;5024261;28;20372;-72
2022/11/05 11:11:00;;;;;;;3.03;0.90;;;12.20;99.90;;;;;;5048170;28;20055;-72
2022/11/05 11:13:59;;;;;;;7.40;1.67;;;12.10;99.90;;;;;;5042124;28;20665;-72
2022/11/05 11:16:34;;;;;;;4.83;0.87;;;12.10;99.90;;;;;;5023292;28;20290;-72
2022/11/05 11:19:02;;;;;;;6.70;1.10;;;12.00;99.90;;;;;;5044736;28;20384;-72
2022/11/05 11:21:29;;;;;;;3.13;0.70;;;11.80;99.90;;;;;;5005051;28;20511;-72
2022/11/05 11:24:05;;;;;;;5.13;0.90;;;11.80;99.90;;;;;;5029007;28;20305;-71
2022/11/05 11:26:34;;;;;;;4.13;0.80;;;11.70;99.90;;;;;;5020224;28;20322;-72
2022/11/05 11:29:25;;;;;;;3.67;0.90;;;11.50;99.90;;;;;;5047376;28;20289;-72
2022/11/05 11:32:00;;;;;;;1.20;0.43;;;11.40;99.90;;;;;;5033172;28;20298;-71
2022/11/05 11:34:37;;;;;;;1.67;0.30;;;11.10;99.90;;;;;;5031874;28;20282;-71
2022/11/05 11:37:18;;;;;;;1.30;0.43;;;10.90;99.90;;;;;;5046858;28;20770;-72
2022/11/05 11:39:58;;;;;;;2.20;0.40;;;10.70;99.90;;;;;;5031339;28;20283;-71
2022/11/05 11:42:33;;;;;;;1.93;0.30;;;10.50;99.90;;;;;;5031291;28;20332;-72
2022/11/05 11:45:13;;;;;;;1.70;0.50;;;10.40;99.90;;;;;;5047084;28;20314;-72
2022/11/05 11:47:43;;;;;;;4.07;1.10;;;10.30;99.90;;;;;;5036530;28;20441;-71
2022/11/05 11:50:34;;;;;;;1.63;0.50;;;10.30;99.90;;;;;;5046845;28;20538;-72
2022/11/05 11:53:18;;;;;;;2.37;0.50;;;10.20;99.90;;;;;;5030905;28;20301;-72
2022/11/05 11:56:16;;;;;;;4.77;0.73;;;10.20;99.90;;;;;;5047798;28;20275;-72
2022/11/05 11:58:50;;;;;;;5.37;0.63;;;10.20;99.90;;;;;;5038075;28;20909;-72
2022/11/05 12:01:40;;;;;;;1.87;0.70;;;10.10;99.90;;;;;;5029813;28;20331;-72
2022/11/05 12:04:20;;;;;;;2.47;0.50;;;10.00;99.90;;;;;;5024287;28;20783;-72
2022/11/05 12:07:11;;;;;;;1.87;0.60;;;10.00;99.90;;;;;;5037815;28;20817;-72
2022/11/05 12:09:39;;;;;;;3.17;0.60;;;10.00;99.90;;;;;;5019067;28;20330;-72
2022/11/05 12:12:16;;;;;;;4.47;1.17;;;10.00;99.90;;;;;;5042406;28;20838;-72
2022/11/05 12:15:10;;;;;;;4.77;1.00;;;9.90;99.90;;;;;;5023629;28;20361;-72
2022/11/05 12:17:40;;;;;;;3.73;1.20;;;9.90;99.90;;;;;;5046237;28;20315;-72
2022/11/05 12:20:53;;;;;;;3.67;1.20;;;9.90;99.90;;;;;;5036385;28;20353;-72
2022/11/05 12:23:28;;;;;;;4.47;1.13;;;9.90;99.90;;;;;;4975113;28;20284;-72
2022/11/05 12:26:09;;;;;;;;;;;10.00;99.90;;;;;;5032879;28;20356;-72
2022/11/05 12:29:02;;;;;;;4.07;1.20;;;10.00;99.90;;;;;;5040943;28;19973;-72
2022/11/05 12:31:46;;;;;;;5.27;1.10;;;10.00;99.90;;;;;;5047263;28;20642;-72
2022/11/05 12:34:37;;;;;;;7.60;1.37;;;10.10;99.90;;;;;;5047725;28;20705;-72
2022/11/05 12:37:40;;;;;;;3.87;2.00;;;10.20;99.90;;;;;;5018116;28;20298;-73
2022/11/05 12:40:35;;;;;;;8.00;2.80;;;10.30;99.90;;;;;;5016013;28;20787;-72
2022/11/05 12:43:42;;;;;;;8.53;3.23;;;10.40;99.90;;;;;;5046949;28;20286;-72
2022/11/05 12:46:34;;;;;;;8.37;3.10;;;10.50;99.90;;;;;;4985228;28;20448;-72
2022/11/05 12:49:22;;;;;;;8.63;3.50;;;10.70;99.90;;;;;;5046811;28;20629;-72
2022/11/05 12:51:53;;;;;;;12.37;4.27;;;10.80;99.90;;;;;;5040070;28;20279;-73
2022/11/05 12:55:02;;;;;;;5.73;3.27;;;11.00;99.90;;;;;;5028996;28;20814;-73
2022/11/05 12:57:30;;;;;;;10.63;3.37;;;11.20;99.90;;;;;;5013899;28;20616;-73
2022/11/05 13:00:19;;;;;;;8.83;3.53;;;11.30;99.90;;;;;;5025036;28;20929;-73
2022/11/05 13:03:28;;;;;;;11.13;3.57;;;11.50;99.90;;;;;;5032708;28;20293;-74
2022/11/05 13:06:20;;;;;;;10.07;3.50;;;11.70;99.90;;;;;;5022102;28;20339;-73
2022/11/05 13:08:58;;;;;;;8.20;3.13;;;11.90;99.90;;;;;;5030589;28;20973;-73
2022/11/05 13:11:41;;;;;;;10.13;3.40;;;12.00;99.90;;;;;;5051512;28;20290;-73
2022/11/05 13:14:35;;;;;;;10.77;2.77;;;12.00;99.90;;;;;;5052386;28;20366;-73
2022/11/05 13:17:06;;;;;;;9.57;3.07;;;12.00;99.90;;;;;;5035100;28;20655;-74
2022/11/05 13:19:53;;;;;;;9.43;2.90;;;11.90;99.90;;;;;;5014848;28;20670;-74
2022/11/05 13:22:19;;;;;;;7.23;2.80;;;11.80;99.90;;;;;;5035822;28;20294;-74
2022/11/05 13:24:49;;;;;;;8.87;2.80;;;11.70;99.90;;;;;;5035779;28;20643;-73
2022/11/05 13:27:34;;;;;;;5.23;2.47;;;11.70;99.90;;;;;;5046429;28;20782;-73
2022/11/05 13:30:03;;;;;;;8.23;2.93;;;11.60;99.90;;;;;;5033874;28;20420;-73
2022/11/05 13:32:39;;;;;;;4.93;3.00;;;11.50;99.90;;;;;;5045115;28;20369;-72
2022/11/05 13:35:14;;;;;;;6.40;2.50;;;11.40;99.90;;;;;;5032246;28;20281;-73
2022/11/05 13:40:57;;;;;;;10.53;3.03;;;11.30;99.90;;;;;;5050643;28;20052;-73
2022/11/05 13:44:05;;;;;;;8.30;2.97;;;11.30;99.90;;;;;;5042776;28;20291;-72
2022/11/05 13:46:50;;;;;;;9.30;3.07;;;11.20;99.90;;;;;;5014673;28;20131;-73
2022/11/05 13:49:58;;;;;;;8.67;2.70;;;11.20;99.90;;;;;;5047665;28;20373;-72
2022/11/05 13:52:49;;;;;;;6.83;2.70;;;11.10;99.90;;;;;;5038804;28;20294;-73
2022/11/05 13:55:15;;;;;;;7.10;2.53;;;11.10;99.90;;;;;;5026065;28;20275;-74
2022/11/05 13:57:47;;;;;;;8.23;2.47;;;11.10;99.90;;;;;;5044903;28;20292;-73
2022/11/05 14:00:28;;;;;;;3.43;1.83;;;11.00;99.90;;;;;;5047321;28;20052;-74
2022/11/05 14:03:04;;;;;;;6.20;2.40;;;11.00;99.90;;;;;;5053436;28;20283;-73
2022/11/05 14:05:36;;;;;;;5.33;2.10;;;11.00;99.90;;;;;;5040175;28;20271;-73
2022/11/05 14:08:18;;;;;;;5.23;2.30;;;10.90;99.90;;;;;;5044188;28;20307;-73